createdAt,value
2018-12-25T00:00:39.118Z,1023.19
2018-12-25T00:01:39.117Z,1023.20
2018-12-25T00:02:39.110Z,1023.16
2018-12-25T00:03:39.116Z,1023.13
2018-12-25T00:04:39.076Z,1023.16
2018-12-25T00:05:39.063Z,1023.14
2018-12-25T00:06:39.056Z,1023.17
2018-12-25T00:07:39.050Z,1023.14
2018-12-25T00:08:39.032Z,1023.13
2018-12-25T00:09:39.034Z,1023.13
2018-12-25T00:10:39.008Z,1023.17
2018-12-25T00:11:38.997Z,1023.14
2018-12-25T00:12:38.985Z,1023.14
2018-12-25T00:13:39.015Z,1023.14
2018-12-25T00:14:38.966Z,1023.16
2018-12-25T00:15:38.954Z,1023.19
2018-12-25T00:16:38.943Z,1023.16
2018-12-25T00:17:38.932Z,1023.20
2018-12-25T00:18:38.920Z,1023.15
2018-12-25T00:19:38.945Z,1023.13
2018-12-25T00:20:38.898Z,1023.10
2018-12-25T00:21:38.887Z,1023.10
2018-12-25T00:22:38.878Z,1023.12
2018-12-25T00:23:38.865Z,1023.10
2018-12-25T00:24:38.855Z,1023.17
2018-12-25T00:25:38.889Z,1023.15
2018-12-25T00:26:38.832Z,1023.25
2018-12-25T00:27:38.823Z,1023.23
2018-12-25T00:28:38.811Z,1023.23
2018-12-25T00:29:38.797Z,1023.23
2018-12-25T00:30:38.788Z,1023.24
2018-12-25T00:31:38.796Z,1023.30
2018-12-25T00:32:38.767Z,1023.23
2018-12-25T00:33:38.755Z,1023.27
2018-12-25T00:34:38.743Z,1023.26
2018-12-25T00:35:38.731Z,1023.29
2018-12-25T00:36:38.759Z,1023.27
2018-12-25T00:37:38.715Z,1023.31
2018-12-25T00:38:38.699Z,1023.29
2018-12-25T00:39:38.690Z,1023.31
2018-12-25T00:40:38.677Z,1023.26
2018-12-25T00:41:38.667Z,1023.27
2018-12-25T00:42:38.684Z,1023.24
2018-12-25T00:43:38.653Z,1023.29
2018-12-25T00:44:38.634Z,1023.26
2018-12-25T00:45:38.626Z,1023.23
2018-12-25T00:46:38.611Z,1023.26
2018-12-25T00:47:38.601Z,1023.21
2018-12-25T00:48:38.627Z,1023.20
2018-12-25T00:49:38.589Z,1023.14
2018-12-25T00:50:38.567Z,1023.17
2018-12-25T00:51:38.555Z,1023.06
2018-12-25T00:52:38.545Z,1023.11
2018-12-25T00:53:38.535Z,1023.11
2018-12-25T00:54:38.537Z,1023.09
2018-12-25T00:55:38.515Z,1023.15
2018-12-25T00:56:38.498Z,1023.10
2018-12-25T00:57:38.490Z,1023.11
2018-12-25T00:58:38.478Z,1023.14
2018-12-25T00:59:38.477Z,1023.14
2018-12-25T01:00:38.457Z,1023.19
2018-12-25T01:01:38.453Z,1023.23
2018-12-25T01:02:38.433Z,1023.15
2018-12-25T01:03:38.423Z,1023.24
2018-12-25T01:04:38.437Z,1023.28
2018-12-25T01:05:38.399Z,1023.25
2018-12-25T01:06:38.390Z,1023.29
2018-12-25T01:07:38.388Z,1023.27
2018-12-25T01:08:38.368Z,1023.32
2018-12-25T01:09:38.357Z,1023.33
2018-12-25T01:10:38.359Z,1023.33
2018-12-25T01:11:38.336Z,1023.35
2018-12-25T01:12:38.325Z,1023.31
2018-12-25T01:13:38.315Z,1023.36
2018-12-25T01:14:38.315Z,1023.37
2018-12-25T01:15:38.291Z,1023.36
2018-12-25T01:16:38.279Z,1023.41
2018-12-25T01:17:38.270Z,1023.37
2018-12-25T01:18:38.260Z,1023.33
2018-12-25T01:19:38.277Z,1023.39
2018-12-25T01:20:38.237Z,1023.39
2018-12-25T01:21:38.225Z,1023.33
2018-12-25T01:22:38.213Z,1023.31
2018-12-25T01:23:38.203Z,1023.33
2018-12-25T01:24:38.192Z,1023.33
2018-12-25T01:25:38.223Z,1023.30
2018-12-25T01:26:38.170Z,1023.35
2018-12-25T01:27:38.158Z,1023.30
2018-12-25T01:28:38.148Z,1023.33
2018-12-25T01:29:38.136Z,1023.34
2018-12-25T01:30:38.124Z,1023.30
2018-12-25T01:31:38.169Z,1023.33
2018-12-25T01:32:38.102Z,1023.34
2018-12-25T01:33:38.091Z,1023.32
2018-12-25T01:34:38.080Z,1023.31
2018-12-25T01:35:38.073Z,1023.28
2018-12-25T01:36:38.058Z,1023.29
2018-12-25T01:37:38.095Z,1023.29
2018-12-25T01:38:38.035Z,1023.32
2018-12-25T01:39:38.026Z,1023.31
2018-12-25T01:40:38.013Z,1023.33
2018-12-25T01:41:38.004Z,1023.31
2018-12-25T01:42:37.991Z,1023.34
2018-12-25T01:43:38.000Z,1023.32
2018-12-25T01:44:37.970Z,1023.29
2018-12-25T01:45:37.958Z,1023.27
2018-12-25T01:46:37.945Z,1023.25
2018-12-25T01:47:37.938Z,1023.29
2018-12-25T01:48:37.938Z,1023.32
2018-12-25T01:49:37.923Z,1023.34
2018-12-25T01:50:37.903Z,1023.33
2018-12-25T01:51:37.891Z,1023.31
2018-12-25T01:52:37.882Z,1023.28
2018-12-25T01:53:37.903Z,1023.24
2018-12-25T01:54:37.860Z,1023.25
2018-12-25T01:55:37.854Z,1023.24
2018-12-25T01:56:37.837Z,1023.16
2018-12-25T01:57:37.825Z,1023.15
2018-12-25T01:58:37.814Z,1023.17
2018-12-25T01:59:37.819Z,1023.15
2018-12-25T02:00:37.808Z,1023.14
2018-12-25T02:01:37.787Z,1023.15
2018-12-25T02:02:37.773Z,1023.11
2018-12-25T02:03:37.758Z,1023.07
2018-12-25T02:04:37.748Z,1023.10
2018-12-25T02:05:37.769Z,1023.14
2018-12-25T02:06:37.726Z,1023.12
2018-12-25T02:07:37.720Z,1023.07
2018-12-25T02:08:37.704Z,1023.10
2018-12-25T02:09:37.697Z,1023.08
2018-12-25T02:10:37.681Z,1023.08
2018-12-25T02:11:37.707Z,1023.09
2018-12-25T02:12:37.661Z,1023.06
2018-12-25T02:13:37.656Z,1023.05
2018-12-25T02:14:37.638Z,1023.07
2018-12-25T02:15:37.626Z,1023.04
2018-12-25T02:16:37.616Z,1023.03
2018-12-25T02:17:37.618Z,1023.10
2018-12-25T02:18:37.607Z,1023.05
2018-12-25T02:19:40.336Z,1023.02
2018-12-25T02:20:37.571Z,1023.10
2018-12-25T02:21:37.561Z,1023.02
2018-12-25T02:22:37.585Z,1023.09
2018-12-25T02:23:37.543Z,1023.00
2018-12-25T02:24:37.526Z,1022.94
2018-12-25T02:25:37.524Z,1022.99
2018-12-25T02:26:37.506Z,1022.99
2018-12-25T02:27:37.495Z,1023.00
2018-12-25T02:28:37.526Z,1022.96
2018-12-25T02:29:37.473Z,1022.99
2018-12-25T02:30:37.464Z,1023.00
2018-12-25T02:31:37.460Z,1022.93
2018-12-25T02:32:37.440Z,1022.95
2018-12-25T02:33:37.428Z,1022.96
2018-12-25T02:34:37.450Z,1022.90
2018-12-25T02:35:37.407Z,1022.90
2018-12-25T02:36:37.397Z,1022.88
2018-12-25T02:37:37.393Z,1022.91
2018-12-25T02:38:37.375Z,1022.90
2018-12-25T02:39:37.362Z,1022.90
2018-12-25T02:40:37.364Z,1022.86
2018-12-25T02:41:37.340Z,1022.90
2018-12-25T02:42:37.331Z,1022.87
2018-12-25T02:43:37.326Z,1022.85
2018-12-25T02:44:37.308Z,1022.87
2018-12-25T02:45:37.318Z,1022.87
2018-12-25T02:46:37.290Z,1022.84
2018-12-25T02:47:37.276Z,1022.90
2018-12-25T02:48:37.264Z,1022.86
2018-12-25T02:49:37.260Z,1022.82
2018-12-25T02:50:37.245Z,1022.83
2018-12-25T02:51:37.245Z,1022.84
2018-12-25T02:52:37.223Z,1022.86
2018-12-25T02:53:37.254Z,1022.82
2018-12-25T02:54:37.226Z,1022.81
2018-12-25T02:55:37.192Z,1022.77
2018-12-25T02:56:37.174Z,1022.75
2018-12-25T02:57:37.165Z,1022.73
2018-12-25T02:58:37.153Z,1022.72
2018-12-25T02:59:37.143Z,1022.69
2018-12-25T03:00:37.164Z,1022.68
2018-12-25T03:01:37.128Z,1022.68
2018-12-25T03:02:37.110Z,1022.66
2018-12-25T03:03:37.099Z,1022.69
2018-12-25T03:04:37.088Z,1022.74
2018-12-25T03:05:37.078Z,1022.73
2018-12-25T03:06:37.097Z,1022.71
2018-12-25T03:07:37.061Z,1022.68
2018-12-25T03:08:37.044Z,1022.68
2018-12-25T03:09:37.040Z,1022.69
2018-12-25T03:10:37.021Z,1022.70
2018-12-25T03:11:37.010Z,1022.75
2018-12-25T03:12:37.022Z,1022.78
2018-12-25T03:13:36.995Z,1022.77
2018-12-25T03:14:36.979Z,1022.79
2018-12-25T03:15:36.966Z,1022.77
2018-12-25T03:16:36.962Z,1022.81
2018-12-25T03:17:36.946Z,1022.81
2018-12-25T03:18:36.954Z,1022.84
2018-12-25T03:19:36.928Z,1022.84
2018-12-25T03:20:36.910Z,1022.82
2018-12-25T03:21:36.900Z,1022.74
2018-12-25T03:22:36.888Z,1022.76
2018-12-25T03:23:36.881Z,1022.80
2018-12-25T03:24:36.880Z,1022.80
2018-12-25T03:25:36.863Z,1022.77
2018-12-25T03:26:36.844Z,1022.77
2018-12-25T03:27:36.833Z,1022.77
2018-12-25T03:28:36.820Z,1022.78
2018-12-25T03:29:36.841Z,1022.72
2018-12-25T03:30:36.944Z,1022.73
2018-12-25T03:31:36.797Z,1022.73
2018-12-25T03:32:36.779Z,1022.78
2018-12-25T03:33:36.764Z,1022.81
2018-12-25T03:34:36.753Z,1022.84
2018-12-25T03:35:36.764Z,1022.81
2018-12-25T03:36:36.733Z,1022.85
2018-12-25T03:37:36.729Z,1022.86
2018-12-25T03:38:36.710Z,1022.91
2018-12-25T03:39:36.701Z,1022.87
2018-12-25T03:40:36.688Z,1022.89
2018-12-25T03:41:36.772Z,1022.83
2018-12-25T03:42:36.665Z,1022.85
2018-12-25T03:43:36.661Z,1022.83
2018-12-25T03:44:36.645Z,1022.75
2018-12-25T03:45:36.631Z,1022.71
2018-12-25T03:46:36.621Z,1022.75
2018-12-25T03:47:36.722Z,1022.74
2018-12-25T03:48:36.598Z,1022.65
2018-12-25T03:49:36.594Z,1022.68
2018-12-25T03:50:36.577Z,1022.73
2018-12-25T03:51:36.569Z,1022.76
2018-12-25T03:52:36.559Z,1022.76
2018-12-25T03:53:36.582Z,1022.75
2018-12-25T03:54:36.533Z,1022.77
2018-12-25T03:55:36.529Z,1022.73
2018-12-25T03:56:36.511Z,1022.70
2018-12-25T03:57:36.501Z,1022.65
2018-12-25T03:58:36.489Z,1022.65
2018-12-25T03:59:36.507Z,1022.67
2018-12-25T04:00:36.467Z,1022.68
2018-12-25T04:01:36.463Z,1022.69
2018-12-25T04:02:36.445Z,1022.67
2018-12-25T04:03:36.436Z,1022.68
2018-12-25T04:04:36.484Z,1022.63
2018-12-25T04:05:36.426Z,1022.62
2018-12-25T04:06:36.399Z,1022.55
2018-12-25T04:07:36.396Z,1022.56
2018-12-25T04:08:36.378Z,1022.53
2018-12-25T04:09:36.382Z,1022.50
2018-12-25T04:10:36.356Z,1022.51
2018-12-25T04:11:36.345Z,1022.51
2018-12-25T04:12:36.334Z,1022.53
2018-12-25T04:13:36.331Z,1022.53
2018-12-25T04:14:36.333Z,1022.47
2018-12-25T04:15:36.302Z,1022.47
2018-12-25T04:16:36.290Z,1022.50
2018-12-25T04:17:36.279Z,1022.44
2018-12-25T04:18:36.269Z,1022.47
2018-12-25T04:19:36.266Z,1022.47
2018-12-25T04:20:36.281Z,1022.48
2018-12-25T04:21:36.235Z,1022.49
2018-12-25T04:22:36.227Z,1022.46
2018-12-25T04:23:36.211Z,1022.49
2018-12-25T04:24:36.202Z,1022.47
2018-12-25T04:25:36.197Z,1022.44
2018-12-25T04:26:36.210Z,1022.46
2018-12-25T04:27:36.166Z,1022.47
2018-12-25T04:28:36.162Z,1022.44
2018-12-25T04:29:36.147Z,1022.47
2018-12-25T04:30:36.137Z,1022.43
2018-12-25T04:31:36.128Z,1022.49
2018-12-25T04:32:36.126Z,1022.49
2018-12-25T04:33:36.103Z,1022.51
2018-12-25T04:34:36.090Z,1022.44
2018-12-25T04:35:36.085Z,1022.54
2018-12-25T04:36:36.067Z,1022.52
2018-12-25T04:37:36.106Z,1022.53
2018-12-25T04:38:36.047Z,1022.51
2018-12-25T04:39:36.037Z,1022.50
2018-12-25T04:40:36.025Z,1022.54
2018-12-25T04:41:36.031Z,1022.54
2018-12-25T04:42:36.000Z,1022.49
2018-12-25T04:43:36.038Z,1022.52
2018-12-25T04:44:35.981Z,1022.53
2018-12-25T04:45:35.969Z,1022.51
2018-12-25T04:46:35.960Z,1022.56
2018-12-25T04:47:35.946Z,1022.57
2018-12-25T04:48:35.937Z,1022.57
2018-12-25T04:49:35.950Z,1022.61
2018-12-25T04:50:35.912Z,1022.57
2018-12-25T04:51:35.904Z,1022.57
2018-12-25T04:52:35.889Z,1022.60
2018-12-25T04:53:35.886Z,1022.62
2018-12-25T04:54:35.869Z,1022.62
2018-12-25T04:55:35.880Z,1022.66
2018-12-25T04:56:35.858Z,1022.72
2018-12-25T04:57:35.836Z,1022.66
2018-12-25T04:58:35.831Z,1022.65
2018-12-25T04:59:35.813Z,1022.62
2018-12-25T05:00:35.803Z,1022.65
2018-12-25T05:01:35.834Z,1022.61
2018-12-25T05:02:35.781Z,1022.63
2018-12-25T05:03:35.769Z,1022.61
2018-12-25T05:04:35.761Z,1022.58
2018-12-25T05:05:35.748Z,1022.62
2018-12-25T05:06:35.740Z,1022.59
2018-12-25T05:07:35.750Z,1022.66
2018-12-25T05:08:35.728Z,1022.69
2018-12-25T05:09:35.703Z,1022.68
2018-12-25T05:10:35.693Z,1022.73
2018-12-25T05:11:35.682Z,1022.74
2018-12-25T05:12:35.669Z,1022.74
2018-12-25T05:13:35.676Z,1022.70
2018-12-25T05:14:35.647Z,1022.74
2018-12-25T05:15:35.636Z,1022.68
2018-12-25T05:16:35.629Z,1022.71
2018-12-25T05:17:35.614Z,1022.71
2018-12-25T05:18:35.629Z,1022.69
2018-12-25T05:19:35.601Z,1022.68
2018-12-25T05:20:37.965Z,1022.65
2018-12-25T05:21:35.569Z,1022.66
2018-12-25T05:22:35.558Z,1022.65
2018-12-25T05:23:35.547Z,1022.65
2018-12-25T05:24:35.549Z,1022.66
2018-12-25T05:25:35.533Z,1022.65
2018-12-25T05:26:35.527Z,1022.68
2018-12-25T05:27:35.508Z,1022.67
2018-12-25T05:28:35.492Z,1022.63
2018-12-25T05:29:35.482Z,1022.56
2018-12-25T05:30:35.471Z,1022.60
2018-12-25T05:31:35.484Z,1022.61
2018-12-25T05:32:35.447Z,1022.63
2018-12-25T05:33:35.436Z,1022.60
2018-12-25T05:34:35.439Z,1022.55
2018-12-25T05:35:35.415Z,1022.61
2018-12-25T05:36:35.405Z,1022.61
2018-12-25T05:37:35.395Z,1022.64
2018-12-25T05:38:35.381Z,1022.63
2018-12-25T05:39:35.381Z,1022.69
2018-12-25T05:40:35.359Z,1022.69
2018-12-25T05:41:35.397Z,1022.70
2018-12-25T05:42:35.335Z,1022.69
2018-12-25T05:43:35.333Z,1022.66
2018-12-25T05:44:35.314Z,1022.60
2018-12-25T05:45:35.339Z,1022.61
2018-12-25T05:46:35.294Z,1022.56
2018-12-25T05:47:35.282Z,1022.53
2018-12-25T05:48:35.269Z,1022.48
2018-12-25T05:49:35.265Z,1022.46
2018-12-25T05:50:35.247Z,1022.47
2018-12-25T05:51:35.271Z,1022.52
2018-12-25T05:52:35.227Z,1022.53
2018-12-25T05:53:35.214Z,1022.50
2018-12-25T05:54:35.203Z,1022.49
2018-12-25T05:55:35.202Z,1022.54
2018-12-25T05:56:35.183Z,1022.55
2018-12-25T05:57:35.184Z,1022.55
2018-12-25T05:58:35.158Z,1022.53
2018-12-25T05:59:35.146Z,1022.51
2018-12-25T06:00:35.137Z,1022.53
2018-12-25T06:01:35.134Z,1022.52
2018-12-25T06:02:35.128Z,1022.51
2018-12-25T06:03:35.103Z,1022.50
2018-12-25T06:04:35.104Z,1022.47
2018-12-25T06:05:35.081Z,1022.41
2018-12-25T06:06:35.071Z,1022.45
2018-12-25T06:07:35.082Z,1022.33
2018-12-25T06:08:35.048Z,1022.29
2018-12-25T06:09:35.061Z,1022.30
2018-12-25T06:10:35.026Z,1022.34
2018-12-25T06:11:35.016Z,1022.33
2018-12-25T06:12:35.005Z,1022.31
2018-12-25T06:13:35.007Z,1022.39
2018-12-25T06:14:34.983Z,1022.35
2018-12-25T06:15:34.980Z,1022.31
2018-12-25T06:16:34.960Z,1022.35
2018-12-25T06:17:34.948Z,1022.33
2018-12-25T06:18:34.941Z,1022.31
2018-12-25T06:19:34.941Z,1022.38
2018-12-25T06:20:34.913Z,1022.35
2018-12-25T06:21:34.908Z,1022.41
2018-12-25T06:22:34.894Z,1022.38
2018-12-25T06:23:34.882Z,1022.44
2018-12-25T06:24:34.892Z,1022.39
2018-12-25T06:25:34.866Z,1022.44
2018-12-25T06:26:34.847Z,1022.43
2018-12-25T06:27:34.839Z,1022.43
2018-12-25T06:28:34.826Z,1022.40
2018-12-25T06:29:34.816Z,1022.41
2018-12-25T06:30:34.815Z,1022.42
2018-12-25T06:31:34.797Z,1022.44
2018-12-25T06:32:34.782Z,1022.38
2018-12-25T06:33:34.771Z,1022.46
2018-12-25T06:34:34.771Z,1022.40
2018-12-25T06:35:34.748Z,1022.42
2018-12-25T06:36:34.770Z,1022.43
2018-12-25T06:37:34.732Z,1022.42
2018-12-25T06:38:34.717Z,1022.40
2018-12-25T06:39:34.704Z,1022.40
2018-12-25T06:40:34.693Z,1022.43
2018-12-25T06:41:34.683Z,1022.40
2018-12-25T06:42:34.683Z,1022.40
2018-12-25T06:43:34.670Z,1022.38
2018-12-25T06:44:34.647Z,1022.41
2018-12-25T06:45:34.636Z,1022.44
2018-12-25T06:46:34.626Z,1022.45
2018-12-25T06:47:34.628Z,1022.46
2018-12-25T06:48:34.625Z,1022.45
2018-12-25T06:49:34.597Z,1022.54
2018-12-25T06:50:34.581Z,1022.49
2018-12-25T06:51:34.570Z,1022.51
2018-12-25T06:52:34.561Z,1022.54
2018-12-25T06:53:34.546Z,1022.50
2018-12-25T06:54:34.553Z,1022.51
2018-12-25T06:55:34.531Z,1022.49
2018-12-25T06:56:34.515Z,1022.50
2018-12-25T06:57:34.534Z,1022.47
2018-12-25T06:58:34.506Z,1022.52
2018-12-25T06:59:34.482Z,1022.51
2018-12-25T07:00:34.515Z,1022.48
2018-12-25T07:01:34.466Z,1022.53
2018-12-25T07:02:34.446Z,1022.49
2018-12-25T07:03:34.522Z,1022.47
2018-12-25T07:04:34.425Z,1022.45
2018-12-25T07:05:34.413Z,1022.45
2018-12-25T07:06:34.448Z,1022.45
2018-12-25T07:07:34.389Z,1022.46
2018-12-25T07:08:34.380Z,1022.43
2018-12-25T07:09:34.369Z,1022.38
2018-12-25T07:10:34.355Z,1022.38
2018-12-25T07:11:34.345Z,1022.34
2018-12-25T07:12:34.367Z,1022.37
2018-12-25T07:13:34.329Z,1022.26
2018-12-25T07:14:34.311Z,1022.31
2018-12-25T07:15:34.300Z,1022.32
2018-12-25T07:16:34.289Z,1022.30
2018-12-25T07:17:34.279Z,1022.30
2018-12-25T07:18:34.298Z,1022.32
2018-12-25T07:19:34.256Z,1022.22
2018-12-25T07:20:34.244Z,1022.23
2018-12-25T07:21:34.232Z,1022.20
2018-12-25T07:22:34.220Z,1022.19
2018-12-25T07:23:34.212Z,1022.22
2018-12-25T07:24:34.223Z,1022.26
2018-12-25T07:25:34.214Z,1022.30
2018-12-25T07:26:34.176Z,1022.28
2018-12-25T07:27:34.169Z,1022.22
2018-12-25T07:28:34.154Z,1022.21
2018-12-25T07:29:34.146Z,1022.21
2018-12-25T07:30:34.134Z,1022.11
2018-12-25T07:31:34.138Z,1022.10
2018-12-25T07:32:34.109Z,1022.11
2018-12-25T07:33:34.100Z,1022.14
2018-12-25T07:34:34.090Z,1022.15
2018-12-25T07:35:34.121Z,1022.18
2018-12-25T07:36:34.094Z,1022.24
2018-12-25T07:37:34.052Z,1022.23
2018-12-25T07:38:34.040Z,1022.28
2018-12-25T07:39:34.027Z,1022.24
2018-12-25T07:40:34.110Z,1022.26
2018-12-25T07:41:34.006Z,1022.21
2018-12-25T07:42:34.021Z,1022.18
2018-12-25T07:43:33.987Z,1022.20
2018-12-25T07:44:33.975Z,1022.18
2018-12-25T07:45:33.962Z,1022.15
2018-12-25T07:46:33.953Z,1022.11
2018-12-25T07:47:33.980Z,1022.05
2018-12-25T07:48:33.936Z,1021.99
2018-12-25T07:49:33.918Z,1021.97
2018-12-25T07:50:33.908Z,1021.95
2018-12-25T07:51:33.894Z,1021.90
2018-12-25T07:52:33.884Z,1021.95
2018-12-25T07:53:33.889Z,1021.89
2018-12-25T07:54:33.868Z,1021.87
2018-12-25T07:55:33.851Z,1021.81
2018-12-25T07:56:33.916Z,1021.78
2018-12-25T07:57:33.831Z,1021.79
2018-12-25T07:58:33.856Z,1021.78
2018-12-25T07:59:33.807Z,1021.77
2018-12-25T08:00:33.803Z,1021.79
2018-12-25T08:01:33.784Z,1021.89
2018-12-25T08:02:33.772Z,1021.94
2018-12-25T08:03:33.771Z,1021.96
2018-12-25T08:04:33.774Z,1022.01
2018-12-25T08:05:33.741Z,1022.00
2018-12-25T08:06:33.737Z,1022.05
2018-12-25T08:07:33.716Z,1022.05
2018-12-25T08:08:33.705Z,1022.11
2018-12-25T08:09:33.693Z,1022.07
2018-12-25T08:10:33.728Z,1022.09
2018-12-25T08:11:33.672Z,1022.19
2018-12-25T08:12:33.668Z,1022.21
2018-12-25T08:13:33.651Z,1022.16
2018-12-25T08:14:33.639Z,1022.12
2018-12-25T08:15:33.627Z,1022.12
2018-12-25T08:16:33.646Z,1022.13
2018-12-25T08:17:33.607Z,1022.14
2018-12-25T08:18:33.607Z,1022.17
2018-12-25T08:19:33.583Z,1022.17
2018-12-25T08:20:33.573Z,1022.27
2018-12-25T08:21:33.560Z,1022.26
2018-12-25T08:22:33.569Z,1022.28
2018-12-25T08:23:33.544Z,1022.31
2018-12-25T08:24:33.539Z,1022.36
2018-12-25T08:25:33.515Z,1022.40
2018-12-25T08:26:33.505Z,1022.38
2018-12-25T08:27:33.493Z,1022.38
2018-12-25T08:28:33.515Z,1022.33
2018-12-25T08:29:33.470Z,1022.32
2018-12-25T08:30:33.466Z,1022.31
2018-12-25T08:31:33.448Z,1022.30
2018-12-25T08:32:33.436Z,1022.28
2018-12-25T08:33:33.425Z,1022.30
2018-12-25T08:34:33.439Z,1022.29
2018-12-25T08:35:33.404Z,1022.23
2018-12-25T08:36:33.403Z,1022.17
2018-12-25T08:37:33.382Z,1022.19
2018-12-25T08:38:33.372Z,1022.15
2018-12-25T08:39:33.362Z,1022.18
2018-12-25T08:40:33.358Z,1022.23
2018-12-25T08:41:33.335Z,1022.23
2018-12-25T08:42:33.333Z,1022.20
2018-12-25T08:43:33.318Z,1022.17
2018-12-25T08:44:33.345Z,1022.16
2018-12-25T08:45:33.299Z,1022.13
2018-12-25T08:46:33.281Z,1022.11
2018-12-25T08:47:33.273Z,1022.15
2018-12-25T08:48:33.266Z,1022.19
2018-12-25T08:49:33.247Z,1022.24
2018-12-25T08:50:33.257Z,1022.29
2018-12-25T08:51:37.613Z,1022.25
2018-12-25T08:52:33.213Z,1022.26
2018-12-25T08:53:33.201Z,1022.31
2018-12-25T08:54:33.196Z,1022.39
2018-12-25T08:55:33.178Z,1022.38
2018-12-25T08:56:33.197Z,1022.39
2018-12-25T08:57:33.212Z,1022.37
2018-12-25T08:58:33.146Z,1022.29
2018-12-25T08:59:33.132Z,1022.25
2018-12-25T09:00:33.128Z,1022.26
2018-12-25T09:01:33.111Z,1022.33
2018-12-25T09:02:33.252Z,1022.22
2018-12-25T09:03:33.088Z,1022.23
2018-12-25T09:04:33.077Z,1022.24
2018-12-25T09:05:33.074Z,1022.29
2018-12-25T09:06:33.061Z,1022.22
2018-12-25T09:07:33.042Z,1022.25
2018-12-25T09:08:34.930Z,1022.24
2018-12-25T09:09:33.020Z,1022.27
2018-12-25T09:10:33.014Z,1022.26
2018-12-25T09:11:32.997Z,1022.28
2018-12-25T09:12:32.992Z,1022.32
2018-12-25T09:13:32.976Z,1022.28
2018-12-25T09:14:32.997Z,1022.30
2018-12-25T09:15:32.952Z,1022.38
2018-12-25T09:16:32.942Z,1022.33
2018-12-25T09:17:32.931Z,1022.39
2018-12-25T09:18:32.920Z,1022.40
2018-12-25T09:19:32.908Z,1022.38
2018-12-25T09:20:32.931Z,1022.38
2018-12-25T09:21:32.885Z,1022.42
2018-12-25T09:22:32.873Z,1022.48
2018-12-25T09:23:32.862Z,1022.43
2018-12-25T09:24:32.861Z,1022.47
2018-12-25T09:25:32.840Z,1022.47
2018-12-25T09:26:32.849Z,1022.51
2018-12-25T09:27:32.862Z,1022.41
2018-12-25T09:28:32.807Z,1022.40
2018-12-25T09:29:32.794Z,1022.39
2018-12-25T09:30:32.790Z,1022.37
2018-12-25T09:31:32.771Z,1022.37
2018-12-25T09:32:32.801Z,1022.35
2018-12-25T09:33:32.751Z,1022.36
2018-12-25T09:34:32.739Z,1022.43
2018-12-25T09:35:32.726Z,1022.37
2018-12-25T09:36:32.724Z,1022.33
2018-12-25T09:37:32.706Z,1022.39
2018-12-25T09:38:32.706Z,1022.40
2018-12-25T09:39:32.684Z,1022.35
2018-12-25T09:40:32.671Z,1022.47
2018-12-25T09:41:32.662Z,1022.44
2018-12-25T09:42:32.656Z,1022.52
2018-12-25T09:43:32.661Z,1022.50
2018-12-25T09:44:32.628Z,1022.53
2018-12-25T09:45:32.616Z,1022.54
2018-12-25T09:46:32.609Z,1022.58
2018-12-25T09:47:32.594Z,1022.60
2018-12-25T09:48:32.591Z,1022.65
2018-12-25T09:49:32.607Z,1022.64
2018-12-25T09:50:32.561Z,1022.59
2018-12-25T09:51:32.549Z,1022.58
2018-12-25T09:52:32.537Z,1022.65
2018-12-25T09:53:32.528Z,1022.57
2018-12-25T09:54:32.524Z,1022.60
2018-12-25T09:55:32.541Z,1022.58
2018-12-25T09:56:32.493Z,1022.59
2018-12-25T09:57:32.483Z,1022.59
2018-12-25T09:58:32.475Z,1022.60
2018-12-25T09:59:32.459Z,1022.64
2018-12-25T10:00:32.455Z,1022.62
2018-12-25T10:01:32.468Z,1022.65
2018-12-25T10:02:32.427Z,1022.66
2018-12-25T10:03:32.416Z,1022.67
2018-12-25T10:04:32.405Z,1022.66
2018-12-25T10:05:32.392Z,1022.59
2018-12-25T10:06:32.387Z,1022.54
2018-12-25T10:07:32.403Z,1022.55
2018-12-25T10:08:32.358Z,1022.51
2018-12-25T10:09:32.347Z,1022.54
2018-12-25T10:10:32.337Z,1022.49
2018-12-25T10:11:32.338Z,1022.50
2018-12-25T10:12:32.316Z,1022.53
2018-12-25T10:13:32.321Z,1022.53
2018-12-25T10:14:32.291Z,1022.51
2018-12-25T10:15:32.280Z,1022.53
2018-12-25T10:16:32.270Z,1022.53
2018-12-25T10:17:32.266Z,1022.57
2018-12-25T10:18:32.246Z,1022.51
2018-12-25T10:19:32.275Z,1022.54
2018-12-25T10:20:32.226Z,1022.62
2018-12-25T10:21:32.213Z,1022.48
2018-12-25T10:22:32.202Z,1022.61
2018-12-25T10:23:32.193Z,1022.58
2018-12-25T10:24:32.180Z,1022.56
2018-12-25T10:25:32.182Z,1022.60
2018-12-25T10:26:32.158Z,1022.65
2018-12-25T10:27:32.147Z,1022.57
2018-12-25T10:28:32.137Z,1022.55
2018-12-25T10:29:32.132Z,1022.56
2018-12-25T10:30:32.132Z,1022.54
2018-12-25T10:31:32.103Z,1022.56
2018-12-25T10:32:32.093Z,1022.57
2018-12-25T10:33:32.081Z,1022.49
2018-12-25T10:34:32.067Z,1022.50
2018-12-25T10:35:32.064Z,1022.46
2018-12-25T10:36:32.059Z,1022.44
2018-12-25T10:37:32.035Z,1022.52
2018-12-25T10:38:32.026Z,1022.52
2018-12-25T10:39:32.014Z,1022.44
2018-12-25T10:40:32.003Z,1022.54
2018-12-25T10:41:32.038Z,1022.45
2018-12-25T10:42:31.980Z,1022.49
2018-12-25T10:43:31.970Z,1022.42
2018-12-25T10:44:31.956Z,1022.41
2018-12-25T10:45:31.946Z,1022.40
2018-12-25T10:46:31.936Z,1022.36
2018-12-25T10:47:31.942Z,1022.36
2018-12-25T10:48:31.912Z,1022.34
2018-12-25T10:49:31.901Z,1022.31
2018-12-25T10:50:31.890Z,1022.30
2018-12-25T10:51:31.882Z,1022.23
2018-12-25T10:52:31.907Z,1022.24
2018-12-25T10:53:31.859Z,1022.27
2018-12-25T10:54:31.845Z,1022.26
2018-12-25T10:55:31.832Z,1022.21
2018-12-25T10:56:31.824Z,1022.16
2018-12-25T10:57:31.812Z,1022.16
2018-12-25T10:58:31.816Z,1022.21
2018-12-25T10:59:31.795Z,1022.16
2018-12-25T11:00:31.778Z,1022.15
2018-12-25T11:01:31.767Z,1022.07
2018-12-25T11:02:31.787Z,1022.05
2018-12-25T11:03:31.745Z,1022.02
2018-12-25T11:04:31.807Z,1022.05
2018-12-25T11:05:31.728Z,1022.06
2018-12-25T11:06:31.717Z,1022.08
2018-12-25T11:07:31.698Z,1021.99
2018-12-25T11:08:31.703Z,1022.03
2018-12-25T11:09:31.678Z,1021.93
2018-12-25T11:10:31.666Z,1022.05
2018-12-25T11:11:31.656Z,1022.02
2018-12-25T11:12:31.665Z,1021.98
2018-12-25T11:13:31.635Z,1021.95
2018-12-25T11:14:31.622Z,1021.94
2018-12-25T11:15:31.611Z,1021.92
2018-12-25T11:16:31.600Z,1021.95
2018-12-25T11:17:31.627Z,1021.93
2018-12-25T11:18:31.583Z,1021.86
2018-12-25T11:19:31.567Z,1021.88
2018-12-25T11:20:31.555Z,1021.83
2018-12-25T11:21:31.545Z,1021.79
2018-12-25T11:22:31.532Z,1021.78
2018-12-25T11:23:31.535Z,1021.78
2018-12-25T11:24:31.517Z,1021.77
2018-12-25T11:25:31.498Z,1021.75
2018-12-25T11:26:31.489Z,1021.78
2018-12-25T11:27:31.477Z,1021.77
2018-12-25T11:28:31.479Z,1021.74
2018-12-25T11:29:31.454Z,1021.77
2018-12-25T11:30:31.451Z,1021.75
2018-12-25T11:31:31.432Z,1021.76
2018-12-25T11:32:31.420Z,1021.79
2018-12-25T11:33:31.445Z,1021.77
2018-12-25T11:34:31.398Z,1021.81
2018-12-25T11:35:31.387Z,1021.80
2018-12-25T11:36:31.387Z,1021.81
2018-12-25T11:37:31.366Z,1021.78
2018-12-25T11:38:31.352Z,1021.73
2018-12-25T11:39:31.355Z,1021.79
2018-12-25T11:40:31.331Z,1021.82
2018-12-25T11:41:31.320Z,1021.82
2018-12-25T11:42:31.314Z,1021.86
2018-12-25T11:43:31.311Z,1021.87
2018-12-25T11:44:31.288Z,1021.87
2018-12-25T11:45:31.278Z,1021.89
2018-12-25T11:46:31.265Z,1021.85
2018-12-25T11:47:31.253Z,1021.85
2018-12-25T11:48:31.249Z,1021.82
2018-12-25T11:49:31.268Z,1021.86
2018-12-25T11:50:31.219Z,1021.86
2018-12-25T11:51:31.208Z,1021.81
2018-12-25T11:52:31.196Z,1021.84
2018-12-25T11:53:31.185Z,1021.79
2018-12-25T11:54:31.179Z,1021.79
2018-12-25T11:55:31.202Z,1021.80
2018-12-25T11:56:31.152Z,1021.76
2018-12-25T11:57:31.143Z,1021.79
2018-12-25T11:58:31.131Z,1021.82
2018-12-25T11:59:31.120Z,1021.87
2018-12-25T12:00:31.113Z,1021.82
2018-12-25T12:01:31.110Z,1021.89
2018-12-25T12:02:31.085Z,1021.91
2018-12-25T12:03:31.072Z,1021.89
2018-12-25T12:04:31.063Z,1021.92
2018-12-25T12:05:31.053Z,1021.86